createdAt,value
2024-03-05T00:01:38.701Z,6.31
2024-03-05T00:04:09.133Z,6.26
2024-03-05T00:06:38.764Z,6.24
2024-03-05T00:09:06.632Z,6.16
2024-03-05T00:11:34.234Z,6.21
2024-03-05T00:14:01.488Z,6.16
2024-03-05T00:16:29.519Z,6.17
2024-03-05T00:18:56.747Z,6.14
2024-03-05T00:21:23.878Z,6.08
2024-03-05T00:23:51.298Z,6.13
2024-03-05T00:26:19.537Z,6.13
2024-03-05T00:28:46.658Z,6.04
2024-03-05T00:31:14.191Z,6.06
2024-03-05T00:33:41.349Z,6.09
2024-03-05T00:36:08.895Z,6.05
2024-03-05T00:38:36.330Z,6.00
2024-03-05T00:41:03.660Z,6.04
2024-03-05T00:43:31.041Z,6.01
2024-03-05T00:45:58.525Z,6.04
2024-03-05T00:48:25.636Z,6.03
2024-03-05T00:50:53.022Z,6.05
2024-03-05T00:53:21.777Z,6.01
2024-03-05T00:55:48.907Z,6.03
2024-03-05T00:58:16.580Z,6.01
2024-03-05T01:00:44.562Z,6.04
2024-03-05T01:03:11.719Z,5.97
2024-03-05T01:05:38.865Z,5.97
2024-03-05T01:08:06.597Z,5.95
2024-03-05T01:10:33.824Z,5.97
2024-03-05T01:13:01.482Z,6.00
2024-03-05T01:15:30.281Z,5.98
2024-03-05T01:17:58.748Z,6.03
2024-03-05T01:20:27.042Z,6.00
2024-03-05T01:22:54.548Z,5.97
2024-03-05T01:25:21.759Z,5.98
2024-03-05T01:27:48.891Z,6.00
2024-03-05T01:30:17.198Z,6.04
2024-03-05T01:33:07.001Z,5.91
2024-03-05T01:35:34.696Z,5.98
2024-03-05T01:38:01.788Z,5.96
2024-03-05T01:40:29.051Z,5.96
2024-03-05T01:42:56.495Z,5.93
2024-03-05T01:45:24.347Z,5.88
2024-03-05T01:47:51.447Z,5.85
2024-03-05T01:50:19.649Z,5.89
2024-03-05T01:52:47.496Z,5.87
2024-03-05T01:55:16.057Z,5.84
2024-03-05T01:57:48.015Z,5.79
2024-03-05T02:00:17.306Z,5.83
2024-03-05T02:02:48.382Z,5.86
2024-03-05T02:05:15.567Z,5.88
2024-03-05T02:07:44.084Z,5.82
2024-03-05T02:10:11.538Z,5.81
2024-03-05T02:12:39.244Z,5.77
2024-03-05T02:15:07.459Z,5.74
2024-03-05T02:17:34.845Z,5.66
2024-03-05T02:20:02.489Z,5.70
2024-03-05T02:22:30.161Z,5.64
2024-03-05T02:24:59.216Z,5.62
2024-03-05T02:27:30.512Z,5.65
2024-03-05T02:30:04.072Z,5.70
2024-03-05T02:32:34.437Z,5.74
2024-03-05T02:35:03.269Z,5.78
2024-03-05T02:37:30.401Z,5.74
2024-03-05T02:39:59.125Z,5.87
2024-03-05T02:42:26.509Z,6.01
2024-03-05T02:44:53.625Z,6.16
2024-03-05T02:47:21.442Z,6.24
2024-03-05T02:49:49.572Z,6.23
2024-03-05T02:52:17.015Z,6.15
2024-03-05T02:54:44.715Z,6.20
2024-03-05T02:57:12.109Z,6.23
2024-03-05T02:59:39.256Z,6.20
2024-03-05T03:02:06.876Z,6.19
2024-03-05T03:04:34.556Z,6.22
2024-03-05T03:07:02.005Z,6.18
2024-03-05T03:09:30.700Z,5.90
2024-03-05T03:11:58.131Z,6.01
2024-03-05T03:14:25.784Z,6.08
2024-03-05T03:16:53.616Z,6.16
2024-03-05T03:19:23.058Z,6.04
2024-03-05T03:21:50.613Z,6.08
2024-03-05T03:24:19.197Z,6.07
2024-03-05T03:26:46.784Z,6.10
2024-03-05T03:29:14.373Z,6.02
2024-03-05T03:31:48.297Z,6.03
2024-03-05T03:34:18.571Z,6.04
2024-03-05T03:36:51.398Z,6.03
2024-03-05T03:39:25.327Z,5.96
2024-03-05T03:41:56.362Z,6.03
2024-03-05T03:44:25.650Z,6.10
2024-03-05T03:46:52.735Z,6.16
2024-03-05T03:49:25.789Z,6.22
2024-03-05T03:51:55.213Z,6.17
2024-03-05T03:54:23.048Z,6.15
2024-03-05T03:56:50.704Z,6.17
2024-03-05T03:59:18.718Z,6.25
2024-03-05T04:01:51.163Z,6.28
2024-03-05T04:04:18.769Z,6.34
2024-03-05T04:06:49.321Z,6.46
2024-03-05T04:09:16.519Z,6.47
2024-03-05T04:11:44.070Z,6.52
2024-03-05T04:14:11.644Z,6.52
2024-03-05T04:16:43.987Z,6.55
2024-03-05T04:19:12.097Z,6.59
2024-03-05T04:21:47.100Z,6.61
2024-03-05T04:24:15.239Z,6.63
2024-03-05T04:26:42.974Z,6.60
2024-03-05T04:29:17.709Z,6.67
2024-03-05T04:31:54.155Z,6.64
2024-03-05T04:34:26.159Z,6.55
2024-03-05T04:36:56.207Z,6.64
2024-03-05T04:39:25.255Z,6.73
2024-03-05T04:41:52.875Z,6.78
2024-03-05T04:44:20.820Z,6.78
2024-03-05T04:46:49.105Z,6.81
2024-03-05T04:49:17.348Z,6.77
2024-03-05T04:51:44.847Z,6.72
2024-03-05T04:54:12.216Z,6.66
2024-03-05T04:56:39.805Z,6.54
2024-03-05T04:59:07.307Z,6.71
2024-03-05T05:01:35.615Z,6.78
2024-03-05T05:04:03.813Z,6.85
2024-03-05T05:06:33.677Z,6.83
2024-03-05T05:09:01.795Z,6.83
2024-03-05T05:11:30.335Z,6.90
2024-03-05T05:13:58.421Z,6.85
2024-03-05T05:16:25.793Z,6.74
2024-03-05T05:18:54.956Z,6.59
2024-03-05T05:21:23.366Z,6.73
2024-03-05T05:23:50.864Z,6.80
2024-03-05T05:26:18.099Z,6.78
2024-03-05T05:28:45.564Z,6.83
2024-03-05T05:31:25.640Z,6.87
2024-03-05T05:33:56.227Z,6.93
2024-03-05T05:36:23.860Z,6.99
2024-03-05T05:38:51.599Z,6.96
2024-03-05T05:41:22.727Z,7.00
2024-03-05T05:43:50.220Z,7.03
2024-03-05T05:46:20.252Z,7.03
2024-03-05T05:48:50.618Z,7.14
2024-03-05T05:51:23.550Z,7.15
2024-03-05T05:53:52.109Z,7.19
2024-03-05T05:56:22.172Z,7.26
2024-03-05T05:58:49.566Z,7.33
2024-03-05T06:01:17.147Z,7.41
2024-03-05T06:03:47.309Z,7.57
2024-03-05T06:06:17.958Z,7.72
2024-03-05T06:08:47.350Z,7.80
2024-03-05T06:11:14.646Z,7.94
2024-03-05T06:13:42.898Z,8.06
2024-03-05T06:16:11.361Z,8.18
2024-03-05T06:18:38.472Z,8.25
2024-03-05T06:21:06.572Z,8.28
2024-03-05T06:23:36.174Z,8.38
2024-03-05T06:26:03.530Z,8.64
2024-03-05T06:28:30.892Z,8.77
2024-03-05T06:30:58.392Z,8.86
2024-03-05T06:33:26.012Z,8.93
2024-03-05T06:35:53.264Z,9.12
2024-03-05T06:38:20.838Z,9.31
2024-03-05T06:40:48.495Z,9.42
2024-03-05T06:43:22.443Z,9.63
2024-03-05T06:45:50.646Z,9.76
2024-03-05T06:48:24.864Z,9.74
2024-03-05T06:51:01.890Z,9.68
2024-03-05T06:53:48.289Z,9.89
2024-03-05T06:56:34.518Z,10.05
2024-03-05T06:59:02.232Z,10.15
2024-03-05T07:01:30.001Z,10.34
2024-03-05T07:03:58.207Z,10.45
2024-03-05T07:06:25.391Z,10.58
2024-03-05T07:08:55.160Z,10.71
2024-03-05T07:11:25.985Z,10.86
2024-03-05T07:13:53.898Z,10.87
2024-03-05T07:16:21.421Z,10.99
2024-03-05T07:18:51.957Z,11.12
2024-03-05T07:21:22.926Z,11.24
2024-03-05T07:23:52.540Z,11.46
2024-03-05T07:26:22.282Z,11.52
2024-03-05T07:28:50.876Z,11.70
2024-03-05T07:31:19.428Z,11.86
2024-03-05T07:34:02.266Z,11.98
2024-03-05T07:36:29.436Z,11.97
2024-03-05T07:39:00.786Z,11.97
2024-03-05T07:41:34.101Z,12.08
2024-03-05T07:44:07.341Z,12.09
2024-03-05T07:46:36.449Z,12.23
2024-03-05T07:49:05.578Z,12.34
2024-03-05T07:51:41.136Z,12.38
2024-03-05T07:54:14.232Z,12.31
2024-03-05T07:56:44.455Z,12.22
2024-03-05T07:59:24.321Z,12.24
2024-03-05T08:01:53.169Z,12.30
2024-03-05T08:04:20.633Z,12.27
2024-03-05T08:06:47.934Z,12.49
2024-03-05T08:09:15.861Z,12.58
2024-03-05T08:11:43.296Z,12.70
2024-03-05T08:14:10.589Z,12.81
2024-03-05T08:16:39.834Z,12.76
2024-03-05T08:19:10.233Z,12.72
2024-03-05T08:21:37.511Z,12.96
2024-03-05T08:24:06.719Z,13.24
2024-03-05T08:26:35.958Z,13.33
2024-03-05T08:29:05.509Z,13.54
2024-03-05T08:31:33.338Z,13.60
2024-03-05T08:34:05.999Z,13.33
2024-03-05T08:36:38.670Z,13.73
2024-03-05T08:39:16.857Z,14.27
2024-03-05T08:41:45.781Z,14.55
2024-03-05T08:44:13.361Z,14.73
2024-03-05T08:46:40.583Z,14.81
2024-03-05T08:49:09.146Z,14.98
2024-03-05T08:51:39.449Z,15.20
2024-03-05T08:54:10.289Z,15.55
2024-03-05T08:56:41.199Z,16.00
2024-03-05T08:59:08.673Z,16.91
2024-03-05T09:01:36.489Z,18.04
2024-03-05T09:04:07.444Z,18.91
2024-03-05T09:06:34.555Z,19.60
2024-03-05T09:09:01.868Z,19.96
2024-03-05T09:11:30.592Z,20.06
2024-03-05T09:13:57.845Z,20.25
2024-03-05T09:16:26.979Z,19.93
2024-03-05T09:18:55.163Z,20.18
2024-03-05T09:21:22.390Z,19.78
2024-03-05T09:23:51.252Z,18.99
2024-03-05T09:26:20.244Z,18.74
2024-03-05T09:28:48.468Z,18.62
2024-03-05T09:31:15.796Z,19.02
2024-03-05T09:33:43.394Z,19.12
2024-03-05T09:36:10.644Z,19.76
2024-03-05T09:38:38.215Z,20.03
2024-03-05T09:41:14.489Z,19.27
2024-03-05T09:46:21.318Z,19.42
2024-03-05T09:48:49.051Z,20.33
2024-03-05T09:51:16.746Z,17.92
2024-03-05T09:53:44.172Z,18.46
2024-03-05T09:56:11.342Z,19.80
2024-03-05T09:58:42.625Z,20.53
2024-03-05T10:04:32.934Z,17.78
2024-03-05T10:07:00.956Z,17.82
2024-03-05T10:09:28.670Z,17.46
2024-03-05T10:11:56.991Z,17.20
2024-03-05T10:14:25.612Z,16.99
2024-03-05T10:17:01.665Z,16.50
2024-03-05T10:19:41.700Z,16.53
2024-03-05T10:22:12.252Z,16.09
2024-03-05T10:24:41.994Z,16.01
2024-03-05T10:27:10.820Z,16.11
2024-03-05T10:29:40.092Z,16.05
2024-03-05T10:32:12.865Z,15.86
2024-03-05T10:34:44.677Z,15.90
2024-03-05T10:37:14.199Z,16.08
2024-03-05T10:39:48.756Z,16.02
2024-03-05T10:42:18.410Z,16.00
2024-03-05T10:44:47.878Z,15.33
2024-03-05T10:47:16.395Z,15.61
2024-03-05T10:53:17.923Z,16.16
2024-03-05T10:59:16.911Z,16.07
2024-03-05T11:01:46.423Z,16.30
2024-03-05T11:04:20.165Z,15.98
2024-03-05T11:06:56.582Z,15.99
2024-03-05T11:09:37.796Z,16.12
2024-03-05T11:12:10.067Z,15.93
2024-03-05T11:14:38.951Z,16.07
2024-03-05T11:17:13.867Z,16.28
2024-03-05T11:19:44.308Z,16.24
2024-03-05T11:22:28.430Z,16.27
2024-03-05T11:25:06.611Z,16.46
2024-03-05T11:27:38.057Z,16.31
2024-03-05T11:30:13.550Z,15.99
2024-03-05T11:32:45.041Z,15.78
2024-03-05T11:35:14.840Z,16.27
2024-03-05T11:37:53.406Z,16.38
2024-03-05T11:40:29.695Z,16.29
2024-03-05T11:42:58.894Z,16.44
2024-03-05T11:45:46.028Z,16.51
2024-03-05T11:48:16.367Z,16.66
2024-03-05T11:50:44.852Z,16.64
2024-03-05T11:53:13.325Z,16.63
2024-03-05T11:55:42.744Z,16.51
2024-03-05T11:58:12.376Z,16.62
2024-03-05T12:00:40.583Z,16.44
2024-03-05T12:03:08.905Z,16.30
2024-03-05T12:05:43.653Z,16.24
2024-03-05T12:08:14.926Z,16.32
2024-03-05T12:10:43.330Z,16.39
2024-03-05T12:13:18.954Z,16.37
2024-03-05T12:16:13.085Z,16.43
2024-03-05T12:18:44.227Z,16.38
2024-03-05T12:21:12.052Z,16.51
2024-03-05T12:23:42.530Z,16.32
2024-03-05T12:26:12.134Z,16.37
2024-03-05T12:28:40.189Z,16.46
2024-03-05T12:31:27.941Z,16.53
2024-03-05T12:33:58.211Z,16.59
2024-03-05T12:36:27.233Z,16.44
2024-03-05T12:38:58.454Z,16.56
2024-03-05T12:41:28.085Z,16.45
2024-03-05T12:43:57.227Z,16.61
2024-03-05T12:46:25.167Z,16.63
2024-03-05T12:48:59.034Z,16.73
2024-03-05T12:51:27.270Z,16.62
2024-03-05T12:54:08.966Z,16.64
2024-03-05T12:56:46.622Z,16.58
2024-03-05T12:59:19.537Z,16.45
2024-03-05T13:01:47.604Z,16.47
2024-03-05T13:04:17.158Z,16.43
2024-03-05T13:06:48.800Z,16.52
2024-03-05T13:09:21.935Z,16.42
2024-03-05T13:11:56.688Z,16.37
2024-03-05T13:14:27.324Z,16.46
2024-03-05T13:16:57.338Z,16.57
2024-03-05T13:19:25.588Z,16.61
2024-03-05T13:21:54.485Z,16.48
2024-03-05T13:24:22.951Z,16.26
2024-03-05T13:26:51.224Z,16.44
2024-03-05T13:29:20.949Z,16.51
2024-03-05T13:31:49.741Z,16.34
2024-03-05T13:34:23.632Z,16.46
2024-03-05T13:36:51.934Z,16.22
2024-03-05T13:39:25.698Z,16.31
2024-03-05T13:45:24.268Z,16.11
2024-03-05T13:47:53.453Z,16.28
2024-03-05T13:54:04.272Z,16.25
2024-03-05T13:56:38.981Z,16.11
2024-03-05T13:59:11.889Z,16.37
2024-03-05T14:01:43.898Z,15.91
2024-03-05T14:04:27.615Z,16.18
2024-03-05T14:07:08.741Z,16.08
2024-03-05T14:09:40.071Z,16.01
2024-03-05T14:12:21.068Z,15.97
2024-03-05T14:14:49.802Z,15.98
2024-03-05T14:17:17.692Z,16.00
2024-03-05T14:19:49.007Z,15.89
2024-03-05T14:22:18.670Z,15.97
2024-03-05T14:24:46.512Z,15.96
2024-03-05T14:27:17.328Z,15.94
2024-03-05T14:29:51.084Z,15.83
2024-03-05T14:32:20.766Z,15.74
2024-03-05T14:34:57.195Z,15.77
2024-03-05T14:37:25.207Z,15.80
2024-03-05T14:43:28.789Z,15.65
2024-03-05T14:49:28.834Z,15.66
2024-03-05T14:51:57.268Z,15.55
2024-03-05T14:54:25.328Z,15.51
2024-03-05T14:56:53.256Z,15.43
2024-03-05T14:59:24.532Z,15.41
2024-03-05T15:01:54.619Z,15.44
2024-03-05T15:04:22.740Z,15.50
2024-03-05T15:06:51.605Z,15.27
2024-03-05T15:09:24.200Z,15.38
2024-03-05T15:11:52.588Z,15.30
2024-03-05T15:14:23.860Z,15.38
2024-03-05T15:20:26.150Z,15.29
2024-03-05T15:23:09.415Z,15.18
2024-03-05T15:25:49.402Z,15.13
2024-03-05T15:28:16.843Z,15.09
2024-03-05T15:30:51.820Z,15.09
2024-03-05T15:33:20.910Z,14.93
2024-03-05T15:35:52.694Z,14.87
2024-03-05T15:38:23.897Z,14.83
2024-03-05T15:40:56.671Z,14.76
2024-03-05T15:43:24.142Z,14.67
2024-03-05T15:46:08.797Z,14.71
2024-03-05T15:48:43.093Z,14.67
2024-03-05T15:51:13.177Z,14.65
2024-03-05T15:53:54.359Z,14.55
2024-03-05T15:57:02.529Z,14.45
2024-03-05T16:00:01.258Z,14.39
2024-03-05T16:02:31.504Z,14.31
2024-03-05T16:05:17.560Z,14.16
2024-03-05T16:07:55.051Z,14.17
2024-03-05T16:10:30.926Z,14.08
2024-03-05T16:13:08.669Z,14.00
2024-03-05T16:15:37.704Z,13.90
2024-03-05T16:18:09.433Z,13.79
2024-03-05T16:20:40.690Z,13.77
2024-03-05T16:23:11.964Z,13.65
2024-03-05T16:25:52.778Z,13.51
2024-03-05T16:28:22.380Z,13.47
2024-03-05T16:30:52.834Z,13.28
2024-03-05T16:33:20.459Z,13.30
2024-03-05T16:35:48.336Z,13.21
2024-03-05T16:38:16.125Z,13.17
2024-03-05T16:40:43.615Z,13.05
2024-03-05T16:43:11.628Z,12.99
2024-03-05T16:45:39.790Z,12.89
2024-03-05T16:48:10.462Z,12.85
2024-03-05T16:50:40.579Z,12.83
2024-03-05T16:53:10.398Z,12.79
2024-03-05T16:55:38.965Z,12.66
2024-03-05T16:58:13.464Z,12.61
2024-03-05T17:00:48.839Z,12.60
2024-03-05T17:03:20.026Z,12.50
2024-03-05T17:05:52.208Z,12.35
2024-03-05T17:08:24.855Z,12.20
2024-03-05T17:10:55.960Z,12.19
2024-03-05T17:13:27.295Z,12.17
2024-03-05T17:16:01.635Z,11.96
2024-03-05T17:18:31.991Z,12.00
2024-03-05T17:20:59.887Z,11.96
2024-03-05T17:23:28.278Z,11.96
2024-03-05T17:25:57.728Z,11.86
2024-03-05T17:28:27.954Z,11.82
2024-03-05T17:30:57.658Z,11.75
2024-03-05T17:33:26.920Z,11.76
2024-03-05T17:35:58.401Z,11.76
2024-03-05T17:38:29.494Z,11.70
2024-03-05T17:40:59.299Z,11.73
2024-03-05T17:43:26.650Z,11.66
2024-03-05T17:45:54.373Z,11.61
2024-03-05T17:48:22.760Z,11.60
2024-03-05T17:50:50.067Z,11.59
2024-03-05T17:53:17.455Z,11.56
2024-03-05T17:55:46.374Z,11.49
2024-03-05T17:58:13.795Z,11.46
2024-03-05T18:00:47.245Z,11.40
2024-03-05T18:03:16.141Z,11.43
2024-03-05T18:05:47.018Z,11.36
2024-03-05T18:08:15.804Z,11.41
2024-03-05T18:10:43.349Z,11.28
2024-03-05T18:13:11.049Z,11.24
2024-03-05T18:15:38.579Z,11.23
2024-03-05T18:18:07.745Z,11.19
2024-03-05T18:20:36.797Z,11.15
2024-03-05T18:23:06.823Z,11.13
2024-03-05T18:25:36.352Z,11.08
2024-03-05T18:28:06.303Z,11.00
2024-03-05T18:30:38.834Z,10.93
2024-03-05T18:33:08.698Z,10.92
2024-03-05T18:35:40.687Z,10.90
2024-03-05T18:38:20.804Z,10.95
2024-03-05T18:40:58.465Z,10.87
2024-03-05T18:43:30.247Z,10.80
2024-03-05T18:46:02.472Z,10.75
2024-03-05T18:48:30.668Z,10.66
2024-03-05T18:50:58.680Z,10.68
2024-03-05T18:53:36.115Z,10.65
2024-03-05T18:56:12.629Z,10.68
2024-03-05T18:58:42.942Z,10.57
2024-03-05T19:01:12.103Z,10.60
2024-03-05T19:03:40.738Z,10.51
2024-03-05T19:06:08.808Z,10.41
2024-03-05T19:08:37.989Z,10.43
2024-03-05T19:11:07.597Z,10.36
2024-03-05T19:13:37.482Z,10.33
2024-03-05T19:16:06.030Z,10.33
2024-03-05T19:18:34.023Z,10.30
2024-03-05T19:21:02.574Z,10.33
2024-03-05T19:23:31.385Z,10.31
2024-03-05T19:26:16.789Z,10.31
2024-03-05T19:29:15.344Z,10.25
2024-03-05T19:31:43.892Z,10.27
2024-03-05T19:34:13.176Z,10.21
2024-03-05T19:36:43.217Z,10.21
2024-03-05T19:39:14.741Z,10.16
2024-03-05T19:41:48.509Z,10.15
2024-03-05T19:44:20.074Z,10.11
2024-03-05T19:46:49.695Z,10.06
2024-03-05T19:49:21.286Z,10.10
2024-03-05T19:51:51.818Z,10.03
2024-03-05T19:54:25.465Z,10.07
2024-03-05T19:56:56.995Z,10.07
2024-03-05T19:59:32.078Z,10.00
2024-03-05T20:02:01.971Z,9.95
2024-03-05T20:04:30.726Z,9.92
2024-03-05T20:06:59.593Z,9.93
2024-03-05T20:09:28.800Z,9.90
2024-03-05T20:11:56.936Z,9.82
2024-03-05T20:14:25.439Z,9.85
2024-03-05T20:16:56.884Z,9.81
2024-03-05T20:19:30.141Z,9.74
2024-03-05T20:22:02.430Z,9.74
2024-03-05T20:24:31.010Z,9.67
2024-03-05T20:27:00.537Z,9.68
2024-03-05T20:29:29.327Z,9.65
2024-03-05T20:32:02.631Z,9.62
2024-03-05T20:34:32.815Z,9.60
2024-03-05T20:37:02.125Z,9.62
2024-03-05T20:39:33.926Z,9.61
2024-03-05T20:42:04.175Z,9.60
2024-03-05T20:44:34.784Z,9.54
2024-03-05T20:47:03.965Z,9.52
2024-03-05T20:49:32.139Z,9.46
2024-03-05T20:52:00.238Z,9.43
2024-03-05T20:54:37.794Z,9.43
2024-03-05T20:57:05.935Z,9.46
2024-03-05T20:59:36.065Z,9.45
2024-03-05T21:02:10.595Z,9.46
2024-03-05T21:04:39.952Z,9.46
2024-03-05T21:07:07.970Z,9.43
2024-03-05T21:09:35.882Z,9.47
2024-03-05T21:12:05.713Z,9.46
2024-03-05T21:14:33.527Z,9.45
2024-03-05T21:17:01.348Z,9.43
2024-03-05T21:19:32.398Z,9.44
2024-03-05T21:22:00.556Z,9.40
2024-03-05T21:24:30.723Z,9.36
2024-03-05T21:27:15.993Z,9.37
2024-03-05T21:29:46.582Z,9.39
2024-03-05T21:32:15.037Z,9.26
2024-03-05T21:34:42.845Z,9.29
2024-03-05T21:37:10.693Z,9.33
2024-03-05T21:39:38.665Z,9.32
2024-03-05T21:42:07.141Z,9.35
2024-03-05T21:44:42.393Z,9.32
2024-03-05T21:47:12.569Z,9.28
2024-03-05T21:49:40.363Z,9.23
2024-03-05T21:52:08.560Z,9.25
2024-03-05T21:54:36.598Z,9.16
2024-03-05T21:57:07.654Z,9.22
2024-03-05T21:59:35.472Z,9.22
2024-03-05T22:02:03.567Z,9.18
2024-03-05T22:04:31.675Z,9.19
2024-03-05T22:06:59.393Z,9.13
2024-03-05T22:09:27.161Z,9.12
2024-03-05T22:11:55.284Z,9.13
2024-03-05T22:14:23.220Z,9.10
2024-03-05T22:16:50.956Z,9.14
2024-03-05T22:19:19.004Z,9.20
2024-03-05T22:21:48.200Z,9.31
2024-03-05T22:24:16.901Z,9.25
2024-03-05T22:26:47.823Z,9.18
2024-03-05T22:29:15.652Z,9.11
2024-03-05T22:31:43.726Z,9.13
2024-03-05T22:34:11.868Z,9.12
2024-03-05T22:36:39.684Z,8.92
2024-03-05T22:39:07.106Z,8.84
2024-03-05T22:41:34.629Z,8.88
2024-03-05T22:44:01.910Z,8.96
2024-03-05T22:46:30.713Z,8.78
2024-03-05T22:48:58.325Z,8.67
2024-03-05T22:51:25.743Z,8.68
2024-03-05T22:53:52.986Z,8.63
2024-03-05T22:56:20.809Z,8.58
2024-03-05T22:58:48.269Z,8.58
2024-03-05T23:01:15.767Z,8.55
2024-03-05T23:03:43.742Z,8.59
2024-03-05T23:06:18.607Z,8.67
2024-03-05T23:08:49.093Z,8.60
2024-03-05T23:11:16.541Z,8.40
2024-03-05T23:13:43.902Z,8.32
2024-03-05T23:16:11.903Z,8.25
2024-03-05T23:18:39.122Z,8.28
2024-03-05T23:21:06.923Z,8.25
2024-03-05T23:23:34.888Z,8.24
2024-03-05T23:26:03.894Z,8.19
2024-03-05T23:28:31.132Z,8.23
2024-03-05T23:30:59.737Z,8.25
2024-03-05T23:33:27.136Z,8.25
2024-03-05T23:35:54.596Z,8.26
2024-03-05T23:38:22.190Z,8.18
2024-03-05T23:40:49.456Z,8.21
2024-03-05T23:43:17.136Z,8.15
2024-03-05T23:45:45.151Z,8.13
2024-03-05T23:48:12.417Z,8.11
2024-03-05T23:50:39.638Z,8.10
2024-03-05T23:53:09.342Z,8.04
2024-03-05T23:55:36.574Z,8.03
2024-03-05T23:58:05.759Z,8.03
